createdAt,value
2018-05-31T00:03:49.438Z,110.22
2018-05-31T00:06:22.525Z,113.03
2018-05-31T00:11:25.552Z,116.25
2018-05-31T00:13:54.087Z,118.00
2018-05-31T00:16:23.173Z,119.87
2018-05-31T00:18:52.270Z,118.28
2018-05-31T00:21:20.600Z,122.32
2018-05-31T00:26:42.476Z,122.20
2018-05-31T00:29:11.579Z,123.90
2018-05-31T00:31:40.107Z,127.45
2018-05-31T00:34:20.482Z,129.38
2018-05-31T00:39:23.662Z,132.85
2018-05-31T00:44:28.201Z,122.87
2018-05-31T00:46:56.538Z,121.75
2018-05-31T00:49:25.086Z,115.17
2018-05-31T00:52:04.714Z,115.37
2018-05-31T00:54:33.251Z,114.17
2018-05-31T00:57:02.341Z,117.50
2018-05-31T00:59:33.890Z,115.73
2018-05-31T01:02:02.417Z,118.78
2018-05-31T01:07:23.403Z,127.30
2018-05-31T01:09:52.517Z,134.20
2018-05-31T01:12:21.029Z,135.20
2018-05-31T01:17:24.592Z,130.60
2018-05-31T01:19:53.156Z,128.00
2018-05-31T01:22:27.842Z,125.73
2018-05-31T01:24:56.371Z,122.97
2018-05-31T01:30:11.484Z,120.17
2018-05-31T01:32:40.003Z,118.70
2018-05-31T01:37:42.220Z,134.33
2018-05-31T01:40:11.308Z,128.85
2018-05-31T01:45:22.590Z,122.00
2018-05-31T01:50:25.140Z,123.43
2018-05-31T01:55:27.455Z,130.00
2018-05-31T01:57:55.801Z,133.07
2018-05-31T02:00:24.312Z,133.87
2018-05-31T02:05:26.280Z,134.03
2018-05-31T02:07:54.825Z,131.07
2018-05-31T02:10:41.282Z,131.17
2018-05-31T02:13:10.380Z,130.97
2018-05-31T02:15:38.721Z,128.83
2018-05-31T02:18:07.250Z,128.67
2018-05-31T02:20:38.919Z,129.07
2018-05-31T02:25:47.967Z,124.00
2018-05-31T02:28:16.289Z,123.33
2018-05-31T02:30:44.891Z,121.73
2018-05-31T02:33:13.238Z,118.90
2018-05-31T02:35:41.766Z,120.93
2018-05-31T02:38:11.046Z,121.17
2018-05-31T02:40:39.751Z,124.80
2018-05-31T02:43:08.082Z,125.37
2018-05-31T02:45:37.194Z,124.73
2018-05-31T02:48:06.158Z,130.70
2018-05-31T02:50:34.931Z,131.27
2018-05-31T02:53:03.459Z,130.57
2018-05-31T02:55:32.367Z,131.20
2018-05-31T02:58:01.667Z,137.13
2018-05-31T03:00:30.972Z,133.27
2018-05-31T03:03:00.274Z,135.97
2018-05-31T03:05:28.809Z,136.30
2018-05-31T03:07:57.357Z,140.17
2018-05-31T03:10:26.650Z,138.00
2018-05-31T03:12:55.203Z,143.63
2018-05-31T03:15:23.534Z,147.60
2018-05-31T03:17:51.878Z,151.20
2018-05-31T03:20:20.389Z,152.70
2018-05-31T03:22:48.911Z,152.67
2018-05-31T03:25:17.426Z,156.37
2018-05-31T03:27:45.973Z,152.30
2018-05-31T03:30:14.516Z,152.57
2018-05-31T03:32:43.033Z,150.87
2018-05-31T03:35:11.545Z,156.07
2018-05-31T03:37:40.072Z,157.20
2018-05-31T03:40:08.575Z,158.63
2018-05-31T03:42:37.657Z,158.02
2018-05-31T03:45:06.789Z,149.32
2018-05-31T03:47:35.332Z,150.73
2018-05-31T03:50:04.207Z,153.18
2018-05-31T03:52:34.094Z,151.50
2018-05-31T03:55:03.233Z,148.27
2018-05-31T03:57:31.564Z,145.90
2018-05-31T04:00:00.648Z,147.20
2018-05-31T04:02:30.366Z,148.15
2018-05-31T04:04:59.293Z,147.90
2018-05-31T04:07:28.254Z,146.40
2018-05-31T04:09:57.349Z,146.23
2018-05-31T04:12:26.482Z,147.43
2018-05-31T04:14:55.605Z,148.18
2018-05-31T04:17:24.738Z,147.02
2018-05-31T04:19:53.254Z,143.45
2018-05-31T04:22:22.188Z,142.10
2018-05-31T04:24:51.876Z,142.23
2018-05-31T04:27:21.016Z,140.62
2018-05-31T04:29:50.129Z,138.93
2018-05-31T04:32:19.085Z,141.77
2018-05-31T04:34:48.196Z,139.60
2018-05-31T04:37:17.328Z,137.50
2018-05-31T04:39:46.451Z,139.02
2018-05-31T04:42:15.569Z,139.00
2018-05-31T04:44:44.685Z,137.12
2018-05-31T04:47:13.593Z,133.82
2018-05-31T04:49:42.717Z,135.98
2018-05-31T04:52:11.821Z,130.95
2018-05-31T04:54:40.343Z,132.53
2018-05-31T04:57:09.441Z,130.75
2018-05-31T04:59:38.595Z,129.02
2018-05-31T05:02:07.507Z,130.05
2018-05-31T05:04:36.429Z,128.98
2018-05-31T05:07:05.345Z,131.98
2018-05-31T05:09:34.429Z,129.57
2018-05-31T05:12:03.539Z,133.55
2018-05-31T05:14:32.645Z,129.85
2018-05-31T05:17:01.770Z,133.10
2018-05-31T05:19:30.892Z,130.43
2018-05-31T05:21:59.811Z,127.03
2018-05-31T05:24:28.706Z,128.07
2018-05-31T05:26:57.801Z,124.05
2018-05-31T05:29:26.927Z,122.07
2018-05-31T05:31:56.048Z,124.55
2018-05-31T05:34:25.204Z,120.05
2018-05-31T05:36:54.520Z,119.15
2018-05-31T05:39:23.633Z,118.70
2018-05-31T05:41:52.759Z,116.90
2018-05-31T05:44:21.518Z,110.43
2018-05-31T05:46:50.625Z,104.28
2018-05-31T05:49:19.684Z,102.20
2018-05-31T05:51:48.805Z,98.03
2018-05-31T05:54:17.894Z,99.22
2018-05-31T05:56:47.783Z,95.75
2018-05-31T05:59:16.896Z,97.00
2018-05-31T06:01:46.034Z,96.43
2018-05-31T06:04:15.281Z,93.00
2018-05-31T06:06:44.352Z,90.50
2018-05-31T06:09:13.429Z,88.68
2018-05-31T06:11:42.553Z,86.70
2018-05-31T06:14:11.642Z,85.40
2018-05-31T06:16:42.355Z,81.57
2018-05-31T06:19:11.444Z,82.60
2018-05-31T06:21:40.541Z,79.47
2018-05-31T06:24:09.628Z,78.60
2018-05-31T06:26:38.693Z,82.10
2018-05-31T06:29:07.795Z,78.35
2018-05-31T06:31:36.862Z,75.78
2018-05-31T06:34:05.766Z,81.05
2018-05-31T06:36:34.842Z,78.40
2018-05-31T06:39:03.236Z,81.72
2018-05-31T06:41:32.135Z,81.35
2018-05-31T06:44:01.051Z,79.50
2018-05-31T06:46:30.718Z,77.87
2018-05-31T06:49:03.539Z,77.30
2018-05-31T06:51:33.207Z,73.82
2018-05-31T06:54:02.102Z,70.93
2018-05-31T06:56:31.177Z,66.12
2018-05-31T06:59:00.055Z,66.43
2018-05-31T07:01:28.948Z,63.40
2018-05-31T07:03:57.828Z,61.72
2018-05-31T07:06:26.723Z,56.85
2018-05-31T07:08:56.395Z,60.17
2018-05-31T07:11:25.272Z,58.63
2018-05-31T07:13:54.154Z,60.38
2018-05-31T07:16:23.033Z,60.33
2018-05-31T07:18:51.905Z,60.88
2018-05-31T07:21:20.791Z,59.83
2018-05-31T07:23:49.713Z,61.15
2018-05-31T07:26:18.256Z,58.85
2018-05-31T07:28:47.927Z,58.97
2018-05-31T07:31:16.811Z,60.63
2018-05-31T07:33:45.468Z,58.78
2018-05-31T07:36:14.365Z,62.03
2018-05-31T07:38:43.457Z,62.65
2018-05-31T07:41:13.316Z,61.50
2018-05-31T07:43:42.266Z,59.47
2018-05-31T07:46:11.164Z,61.70
2018-05-31T07:48:40.103Z,64.68
2018-05-31T07:51:09.003Z,63.58
2018-05-31T07:53:37.931Z,62.40
2018-05-31T07:56:07.599Z,59.30
2018-05-31T07:58:36.510Z,60.00
2018-05-31T08:01:06.180Z,57.88
2018-05-31T08:03:35.065Z,59.92
2018-05-31T08:06:04.194Z,57.50
2018-05-31T08:08:33.126Z,59.30
2018-05-31T08:11:02.002Z,58.78
2018-05-31T08:13:30.914Z,57.90
2018-05-31T08:15:59.816Z,57.38
2018-05-31T08:18:28.720Z,58.03
2018-05-31T08:20:58.390Z,56.55
2018-05-31T08:23:27.328Z,57.70
2018-05-31T08:25:56.223Z,54.63
2018-05-31T08:28:25.136Z,56.95
2018-05-31T08:30:54.052Z,55.22
2018-05-31T08:33:22.934Z,53.17
2018-05-31T08:35:52.624Z,49.85
2018-05-31T08:38:21.496Z,50.97
2018-05-31T08:40:50.405Z,40.70
2018-05-31T08:43:20.073Z,31.65
2018-05-31T08:45:48.960Z,25.00
2018-05-31T08:48:17.843Z,23.05
2018-05-31T08:50:46.739Z,21.23
2018-05-31T08:53:15.623Z,21.05
2018-05-31T08:55:44.511Z,21.12
2018-05-31T08:58:13.421Z,21.42
2018-05-31T09:00:42.309Z,20.85
2018-05-31T09:03:11.254Z,16.10
2018-05-31T09:05:40.155Z,14.60
2018-05-31T09:08:09.060Z,14.93
2018-05-31T09:10:37.980Z,14.40
2018-05-31T09:13:07.695Z,16.02
2018-05-31T09:15:37.361Z,15.98
2018-05-31T09:18:06.454Z,13.90
2018-05-31T09:20:35.372Z,15.18
2018-05-31T09:23:04.299Z,12.18
2018-05-31T09:25:33.939Z,11.30
2018-05-31T09:28:02.840Z,14.40
2018-05-31T09:30:44.179Z,15.70
2018-05-31T09:33:15.887Z,10.02
2018-05-31T09:35:44.788Z,5.07
2018-05-31T09:38:13.702Z,6.10
2018-05-31T09:40:42.616Z,14.30
2018-05-31T09:43:11.502Z,17.20
2018-05-31T09:45:40.401Z,18.55
2018-05-31T09:48:09.314Z,15.75
2018-05-31T09:50:38.363Z,14.98
2018-05-31T09:53:06.915Z,8.63
2018-05-31T09:55:35.817Z,9.98
2018-05-31T09:58:04.123Z,9.20
2018-05-31T10:00:42.542Z,6.60
2018-05-31T10:03:11.424Z,4.18
2018-05-31T10:05:40.316Z,4.93
2018-05-31T10:08:09.179Z,4.35
2018-05-31T10:10:38.045Z,4.28
2018-05-31T10:13:06.923Z,3.30
2018-05-31T10:15:35.810Z,2.75
2018-05-31T10:18:04.695Z,3.75
2018-05-31T10:20:33.606Z,3.95
2018-05-31T10:23:01.945Z,4.73
2018-05-31T10:25:31.589Z,5.47
2018-05-31T10:28:00.479Z,6.30
2018-05-31T10:30:29.387Z,6.62
2018-05-31T10:32:58.269Z,6.97
2018-05-31T10:35:27.179Z,7.22
2018-05-31T10:37:56.077Z,7.90
2018-05-31T10:40:24.961Z,8.85
2018-05-31T10:42:53.273Z,9.27
2018-05-31T10:45:22.147Z,6.65
2018-05-31T10:47:50.797Z,6.20
2018-05-31T10:53:11.346Z,4.72
2018-05-31T10:55:40.204Z,4.15
2018-05-31T10:58:09.083Z,4.30
2018-05-31T11:00:38.003Z,5.10
2018-05-31T11:05:41.105Z,4.90
2018-05-31T11:08:10.009Z,4.60
2018-05-31T11:10:39.633Z,4.30
2018-05-31T11:13:08.517Z,4.85
2018-05-31T11:15:37.422Z,4.72
2018-05-31T11:18:06.310Z,4.70
2018-05-31T11:20:35.195Z,4.65
2018-05-31T11:23:04.084Z,4.80
2018-05-31T11:25:32.964Z,4.30
2018-05-31T11:28:02.674Z,5.30
2018-05-31T11:30:31.547Z,5.43
2018-05-31T11:33:01.248Z,5.28
2018-05-31T11:35:30.147Z,5.47
2018-05-31T11:37:59.049Z,5.30
2018-05-31T11:40:31.094Z,5.18
2018-05-31T11:42:59.978Z,4.60
2018-05-31T11:45:28.851Z,5.05
2018-05-31T11:47:57.753Z,5.60
2018-05-31T11:50:26.663Z,4.80
2018-05-31T11:52:55.536Z,5.57
2018-05-31T11:55:24.489Z,5.25
2018-05-31T11:57:53.397Z,5.28
2018-05-31T12:00:22.254Z,6.12
2018-05-31T12:02:51.135Z,6.65
2018-05-31T12:05:23.140Z,8.15
2018-05-31T12:08:07.325Z,7.10
2018-05-31T12:10:35.810Z,6.60
2018-05-31T12:13:07.724Z,6.53
2018-05-31T12:15:36.032Z,7.50
2018-05-31T12:18:04.371Z,7.17
2018-05-31T12:20:33.627Z,7.07
2018-05-31T12:23:01.671Z,9.40
2018-05-31T12:25:30.783Z,8.47
2018-05-31T12:27:59.273Z,7.20
2018-05-31T12:30:27.594Z,8.47
2018-05-31T12:32:55.932Z,8.37
2018-05-31T12:35:24.271Z,9.47
2018-05-31T12:37:52.634Z,10.60
2018-05-31T12:40:20.965Z,11.80
2018-05-31T12:42:50.058Z,12.87
2018-05-31T12:45:18.158Z,13.27
2018-05-31T12:47:47.443Z,13.03
2018-05-31T12:50:16.352Z,13.25
2018-05-31T12:52:45.249Z,11.73
2018-05-31T12:58:05.803Z,9.82
2018-05-31T13:00:34.701Z,8.57
2018-05-31T13:03:03.587Z,9.95
2018-05-31T13:05:33.317Z,8.55
2018-05-31T13:08:02.352Z,8.57
2018-05-31T13:10:31.240Z,7.07
2018-05-31T13:13:00.141Z,6.07
2018-05-31T13:15:29.005Z,7.90
2018-05-31T13:17:57.903Z,7.28
2018-05-31T13:20:26.783Z,7.32
2018-05-31T13:22:55.723Z,7.25
2018-05-31T13:25:24.619Z,5.57
2018-05-31T13:27:53.496Z,4.72
2018-05-31T13:30:22.396Z,5.30
2018-05-31T13:32:52.052Z,4.82
2018-05-31T13:35:20.920Z,5.35
2018-05-31T13:37:49.823Z,6.05
2018-05-31T13:40:18.714Z,5.65
2018-05-31T13:42:47.580Z,5.68
2018-05-31T13:45:16.513Z,4.72
2018-05-31T13:47:45.403Z,5.10
2018-05-31T13:50:14.275Z,5.95
2018-05-31T13:52:42.864Z,4.73
2018-05-31T13:55:11.749Z,6.00
2018-05-31T13:57:40.636Z,5.50
2018-05-31T14:00:09.587Z,6.75
2018-05-31T14:02:38.468Z,8.73
2018-05-31T14:05:07.357Z,6.75
2018-05-31T14:07:36.290Z,7.37
2018-05-31T14:10:05.374Z,9.57
2018-05-31T14:12:34.274Z,10.57
2018-05-31T14:15:03.226Z,10.93
2018-05-31T14:17:32.139Z,10.20
2018-05-31T14:20:01.078Z,10.43
2018-05-31T14:22:29.992Z,11.50
2018-05-31T14:24:59.901Z,10.63
2018-05-31T14:27:28.795Z,9.85
2018-05-31T14:29:57.674Z,9.68
2018-05-31T14:32:26.339Z,9.80
2018-05-31T14:34:55.226Z,9.30
2018-05-31T14:37:24.620Z,9.17
2018-05-31T14:39:53.534Z,8.27
2018-05-31T14:42:22.130Z,9.73
2018-05-31T14:44:50.707Z,9.70
2018-05-31T14:47:19.315Z,9.83
2018-05-31T14:49:48.729Z,10.47
2018-05-31T14:52:17.342Z,10.87
2018-05-31T14:54:45.953Z,9.07
2018-05-31T14:57:14.563Z,9.03
2018-05-31T14:59:52.303Z,10.40
2018-05-31T15:02:20.913Z,10.87
2018-05-31T15:04:49.526Z,10.03
2018-05-31T15:07:17.908Z,11.40
2018-05-31T15:09:46.515Z,11.30
2018-05-31T15:12:15.130Z,10.70
2018-05-31T15:14:44.488Z,10.50
2018-05-31T15:17:13.101Z,9.80
2018-05-31T15:19:41.702Z,9.13
2018-05-31T15:22:10.326Z,8.90
2018-05-31T15:24:38.931Z,8.13
2018-05-31T15:27:07.541Z,8.80
2018-05-31T15:29:36.185Z,8.00
2018-05-31T15:32:04.579Z,8.40
2018-05-31T15:34:33.447Z,9.20
2018-05-31T15:37:02.081Z,9.83
2018-05-31T15:39:30.722Z,8.80
2018-05-31T15:41:59.398Z,8.57
2018-05-31T15:44:28.175Z,6.97
2018-05-31T15:46:56.780Z,6.90
2018-05-31T15:49:26.208Z,6.27
2018-05-31T15:51:55.402Z,5.07
2018-05-31T15:54:24.234Z,5.50
2018-05-31T15:56:52.840Z,5.50
2018-05-31T15:59:21.475Z,5.80
2018-05-31T16:01:50.850Z,5.40
2018-05-31T16:04:19.456Z,5.97
2018-05-31T16:06:48.072Z,5.97
2018-05-31T16:09:16.696Z,6.87
2018-05-31T16:11:45.283Z,6.60
2018-05-31T16:14:13.915Z,6.27
2018-05-31T16:16:43.325Z,5.67
2018-05-31T16:21:46.981Z,5.17
2018-05-31T16:24:15.595Z,4.43
2018-05-31T16:26:44.246Z,4.23
2018-05-31T16:29:12.893Z,5.00
2018-05-31T16:31:41.472Z,5.13
2018-05-31T16:34:10.844Z,5.30
2018-05-31T16:36:39.468Z,4.93
2018-05-31T16:39:08.067Z,4.93
2018-05-31T16:41:36.694Z,4.47
2018-05-31T16:44:05.283Z,4.27
2018-05-31T16:46:33.893Z,4.37
2018-05-31T16:49:02.478Z,4.30
2018-05-31T16:51:30.843Z,4.80
2018-05-31T16:53:59.444Z,4.77
2018-05-31T16:56:28.037Z,4.90
2018-05-31T16:58:56.657Z,4.80
2018-05-31T17:01:25.258Z,4.80
2018-05-31T17:03:53.847Z,4.80
2018-05-31T17:06:22.460Z,4.80
2018-05-31T17:08:51.853Z,4.90
2018-05-31T17:11:20.468Z,4.83
2018-05-31T17:13:49.075Z,4.43
2018-05-31T17:16:17.683Z,5.00
2018-05-31T17:18:46.285Z,4.47
2018-05-31T17:21:14.896Z,5.30
2018-05-31T17:23:43.503Z,5.00
2018-05-31T17:26:12.890Z,5.07
2018-05-31T17:28:41.475Z,4.60
2018-05-31T17:31:09.747Z,4.03
2018-05-31T17:33:38.340Z,3.70
2018-05-31T17:36:08.446Z,3.90
2018-05-31T17:38:37.810Z,4.20
2018-05-31T17:41:06.438Z,4.00
2018-05-31T17:43:35.353Z,4.43
2018-05-31T17:46:03.966Z,4.30
2018-05-31T17:48:32.826Z,4.32
2018-05-31T17:51:01.745Z,4.85
2018-05-31T17:53:30.817Z,4.75
2018-05-31T17:55:59.710Z,4.30
2018-05-31T17:58:28.798Z,4.90
2018-05-31T18:00:57.688Z,5.70
2018-05-31T18:03:26.616Z,4.85
2018-05-31T18:05:55.665Z,5.30
2018-05-31T18:08:24.570Z,5.95
2018-05-31T18:10:53.436Z,6.25
2018-05-31T18:13:23.126Z,6.20
2018-05-31T18:15:52.026Z,6.75
2018-05-31T18:18:20.911Z,6.03
2018-05-31T18:20:49.859Z,6.78
2018-05-31T18:23:18.888Z,6.85
2018-05-31T18:25:47.795Z,6.68
2018-05-31T18:28:16.671Z,6.40
2018-05-31T18:30:45.776Z,6.57
2018-05-31T18:33:14.645Z,6.55
2018-05-31T18:35:43.533Z,6.93
2018-05-31T18:38:12.408Z,6.60
2018-05-31T18:40:44.289Z,7.12
2018-05-31T18:43:13.191Z,6.87
2018-05-31T18:45:42.096Z,7.75
2018-05-31T18:48:10.978Z,7.12
2018-05-31T18:50:39.898Z,7.50
2018-05-31T18:53:08.760Z,7.93
2018-05-31T18:55:38.408Z,7.40
2018-05-31T18:58:06.766Z,7.87
2018-05-31T19:00:36.411Z,8.10
2018-05-31T19:03:05.300Z,7.53
2018-05-31T19:05:34.200Z,8.05
2018-05-31T19:08:03.083Z,7.12
2018-05-31T19:10:31.775Z,7.32
2018-05-31T19:13:06.191Z,8.18
2018-05-31T19:15:35.099Z,7.82
2018-05-31T19:18:03.938Z,7.78
2018-05-31T19:20:32.844Z,8.93
2018-05-31T19:23:01.746Z,9.85
2018-05-31T19:25:30.105Z,9.80
2018-05-31T19:27:58.979Z,8.70
2018-05-31T19:30:34.193Z,9.63
2018-05-31T19:33:03.278Z,9.90
2018-05-31T19:35:37.707Z,9.40
2018-05-31T19:38:06.620Z,10.15
2018-05-31T19:40:35.525Z,9.23
2018-05-31T19:43:09.414Z,10.63
2018-05-31T19:45:38.328Z,12.48
2018-05-31T19:48:08.035Z,12.35
2018-05-31T19:50:36.966Z,12.35
2018-05-31T19:53:11.260Z,11.20
2018-05-31T19:55:40.171Z,10.98
2018-05-31T19:58:14.555Z,11.63
2018-05-31T20:00:48.955Z,10.38
2018-05-31T20:03:23.346Z,11.52
2018-05-31T20:05:52.255Z,12.07
2018-05-31T20:08:21.201Z,12.40
2018-05-31T20:10:50.121Z,11.80
2018-05-31T20:13:19.036Z,13.50
2018-05-31T20:15:48.726Z,13.52
2018-05-31T20:18:17.668Z,13.95
2018-05-31T20:20:46.626Z,13.98
2018-05-31T20:23:15.723Z,15.55
2018-05-31T20:25:44.661Z,15.00
2018-05-31T20:28:13.639Z,14.90
2018-05-31T20:30:43.332Z,14.60
2018-05-31T20:33:12.411Z,13.98
2018-05-31T20:35:41.329Z,13.75
2018-05-31T20:38:10.276Z,14.20
2018-05-31T20:40:39.180Z,14.93
2018-05-31T20:43:08.094Z,14.63
2018-05-31T20:45:37.035Z,14.50
2018-05-31T20:48:05.939Z,15.18
2018-05-31T20:50:34.864Z,15.35
2018-05-31T20:53:03.795Z,15.25
2018-05-31T20:55:32.704Z,14.65
2018-05-31T20:58:01.625Z,15.20
2018-05-31T21:00:30.554Z,15.57
2018-05-31T21:02:59.469Z,16.73
2018-05-31T21:05:31.495Z,16.95
2018-05-31T21:08:00.594Z,17.02
2018-05-31T21:10:28.925Z,17.63
2018-05-31T21:12:57.878Z,16.60
2018-05-31T21:15:26.793Z,16.77
2018-05-31T21:17:55.746Z,17.33
2018-05-31T21:20:24.678Z,17.52
2018-05-31T21:22:53.607Z,17.83
2018-05-31T21:25:22.683Z,18.02
2018-05-31T21:27:51.617Z,18.48
2018-05-31T21:30:21.288Z,17.67
2018-05-31T21:32:50.235Z,20.67
2018-05-31T21:35:19.161Z,19.02
2018-05-31T21:37:48.071Z,18.90
2018-05-31T21:40:16.439Z,19.70
2018-05-31T21:42:45.351Z,22.92
2018-05-31T21:45:14.444Z,22.48
2018-05-31T21:47:45.954Z,21.63
2018-05-31T21:50:15.624Z,20.92
2018-05-31T21:52:44.058Z,22.23
2018-05-31T21:55:12.529Z,20.47
2018-05-31T21:57:40.896Z,20.50
2018-05-31T22:00:08.429Z,22.03
2018-05-31T22:05:10.356Z,22.20
2018-05-31T22:07:38.387Z,22.60
2018-05-31T22:10:06.718Z,22.67
2018-05-31T22:12:35.052Z,24.97
2018-05-31T22:15:03.146Z,24.40
2018-05-31T22:17:32.261Z,24.10
2018-05-31T22:20:00.590Z,24.53
2018-05-31T22:22:28.923Z,24.30
2018-05-31T22:24:57.294Z,23.97
2018-05-31T22:27:25.772Z,25.30
2018-05-31T22:29:54.852Z,26.07
2018-05-31T22:32:23.205Z,27.90
2018-05-31T22:34:51.544Z,27.10
2018-05-31T22:37:20.665Z,28.73
2018-05-31T22:39:48.986Z,27.70
2018-05-31T22:42:17.318Z,27.33
2018-05-31T22:44:46.437Z,28.17
2018-05-31T22:47:14.739Z,27.83
2018-05-31T22:49:43.059Z,28.63
2018-05-31T22:52:11.362Z,29.00
2018-05-31T22:54:39.686Z,30.03
2018-05-31T22:57:08.025Z,29.50
2018-05-31T22:59:36.360Z,27.97
2018-05-31T23:02:04.459Z,31.90
2018-05-31T23:04:32.779Z,31.50
2018-05-31T23:07:01.102Z,32.57
2018-05-31T23:09:29.592Z,33.80
2018-05-31T23:11:57.934Z,34.33
2018-05-31T23:14:26.276Z,35.60
2018-05-31T23:16:54.603Z,34.03
2018-05-31T23:19:22.919Z,34.30
2018-05-31T23:21:52.008Z,36.57
2018-05-31T23:24:20.320Z,38.97
2018-05-31T23:26:48.653Z,44.20
2018-05-31T23:29:16.968Z,46.60
2018-05-31T23:31:45.316Z,48.17
2018-05-31T23:34:13.627Z,50.13
2018-05-31T23:36:41.949Z,52.57
2018-05-31T23:39:11.045Z,54.97
2018-05-31T23:41:39.360Z,54.33
2018-05-31T23:44:07.666Z,53.17
2018-05-31T23:46:35.997Z,53.73
2018-05-31T23:49:04.860Z,53.53
2018-05-31T23:51:33.198Z,55.07
2018-05-31T23:54:01.524Z,54.47
2018-05-31T23:56:29.824Z,52.47
2018-05-31T23:58:58.158Z,53.67
